createdAt,value
2023-03-22T01:59:44.313Z,501.00
2023-03-22T02:00:44.377Z,499.00
2023-03-22T02:01:44.486Z,499.00
2023-03-22T02:02:44.529Z,501.00
2023-03-22T02:03:44.533Z,500.00
2023-03-22T02:04:44.608Z,501.00
2023-03-22T02:05:44.685Z,501.00
2023-03-22T02:06:44.695Z,501.00
2023-03-22T02:07:44.791Z,500.00
2023-03-22T02:08:44.830Z,500.00
2023-03-22T02:09:44.915Z,500.00
2023-03-22T02:10:44.941Z,498.00
2023-03-22T02:11:44.986Z,498.00
2023-03-22T02:12:45.043Z,501.00
2023-03-22T02:13:45.077Z,501.00
2023-03-22T02:14:45.154Z,502.00
2023-03-22T02:15:45.239Z,503.00
2023-03-22T02:16:45.242Z,504.00
2023-03-22T02:17:45.324Z,503.00
2023-03-22T02:18:45.354Z,501.00
2023-03-22T02:19:45.387Z,499.00
2023-03-22T02:20:45.487Z,498.00
2023-03-22T02:21:45.529Z,494.00
2023-03-22T02:22:45.584Z,494.00
2023-03-22T02:23:45.644Z,495.00
2023-03-22T02:24:45.674Z,497.00
2023-03-22T02:25:45.694Z,498.00
2023-03-22T02:26:45.778Z,495.00
2023-03-22T02:27:45.809Z,494.00
2023-03-22T02:28:45.889Z,493.00
2023-03-22T02:29:45.913Z,496.00
2023-03-22T02:30:45.977Z,497.00
2023-03-22T02:31:46.018Z,497.00
2023-03-22T02:32:46.071Z,497.00
2023-03-22T02:33:46.132Z,498.00
2023-03-22T02:34:46.146Z,497.00
2023-03-22T02:35:46.244Z,498.00
2023-03-22T02:36:46.248Z,498.00
2023-03-22T02:37:46.341Z,501.00
2023-03-22T02:38:46.381Z,500.00
2023-03-22T02:39:46.427Z,500.00
2023-03-22T02:40:46.477Z,500.00
2023-03-22T02:41:46.521Z,496.00
2023-03-22T02:42:46.573Z,495.00
2023-03-22T02:43:46.639Z,495.00
2023-03-22T05:05:49.450Z,497.00
2023-03-22T05:06:49.502Z,499.00
2023-03-22T05:07:49.494Z,501.00
2023-03-22T05:08:49.494Z,498.00
2023-03-22T05:09:49.518Z,500.00
2023-03-22T05:10:49.529Z,501.00
2023-03-22T05:11:49.557Z,502.00
2023-03-22T05:12:49.535Z,503.00
2023-03-22T05:13:49.558Z,503.00
2023-03-22T05:14:49.629Z,502.00
2023-03-22T05:15:49.640Z,502.00
2023-03-22T05:16:49.618Z,499.00
2023-03-22T05:17:49.625Z,499.00
2023-03-22T05:18:49.628Z,497.00
2023-03-22T05:19:49.640Z,496.00
2023-03-22T05:20:49.647Z,494.00
2023-03-22T05:21:49.689Z,495.00
2023-03-22T05:22:49.716Z,492.00
2023-03-22T05:23:51.483Z,491.00
2023-03-22T05:24:49.759Z,491.00
2023-03-22T05:25:49.744Z,490.00
2023-03-22T05:26:49.751Z,487.00
2023-03-22T05:27:49.782Z,488.00
2023-03-22T05:28:49.780Z,491.00
2023-03-22T05:29:49.877Z,493.00
2023-03-22T05:30:49.864Z,489.00
2023-03-22T05:31:49.929Z,489.00
2023-03-22T05:32:49.887Z,489.00
2023-03-22T05:33:49.933Z,490.00
2023-03-22T05:34:49.956Z,490.00
2023-03-22T05:35:50.012Z,492.00
2023-03-22T05:36:49.988Z,492.00
2023-03-22T05:37:49.973Z,494.00
2023-03-22T05:38:49.984Z,494.00
2023-03-22T05:39:50.008Z,497.00
2023-03-22T05:40:49.978Z,498.00
2023-03-22T05:41:49.978Z,498.00
2023-03-22T05:42:50.004Z,501.00
2023-03-22T05:43:50.017Z,499.00
2023-03-22T05:44:50.017Z,498.00
2023-03-22T05:45:50.020Z,500.00
2023-03-22T05:46:50.003Z,500.00
2023-03-22T05:47:50.039Z,501.00
2023-03-22T05:48:50.041Z,501.00
2023-03-22T05:49:50.060Z,501.00
2023-03-22T05:50:50.056Z,500.00
2023-03-22T05:51:50.020Z,500.00
2023-03-22T05:52:50.041Z,498.00
2023-03-22T05:53:50.039Z,499.00
2023-03-22T05:54:50.001Z,499.00
2023-03-22T05:55:49.996Z,499.00
2023-03-22T05:56:50.007Z,500.00
2023-03-22T05:57:49.999Z,502.00
2023-03-22T05:58:50.005Z,503.00
2023-03-22T05:59:49.980Z,506.00
2023-03-22T06:00:57.022Z,505.00
2023-03-22T06:01:50.041Z,504.00
2023-03-22T06:02:50.052Z,503.00
2023-03-22T06:03:49.997Z,503.00
2023-03-22T06:04:49.978Z,503.00
2023-03-22T06:05:49.980Z,503.00
2023-03-22T06:06:50.001Z,501.00
2023-03-22T06:07:49.979Z,499.00
2023-03-22T06:08:49.969Z,500.00
2023-03-22T06:09:49.958Z,502.00
2023-03-22T06:10:49.956Z,503.00
2023-03-22T06:11:49.938Z,504.00
2023-03-22T06:12:49.946Z,502.00
2023-03-22T06:13:49.940Z,503.00
2023-03-22T06:14:49.954Z,502.00
2023-03-22T06:15:49.909Z,502.00
2023-03-22T06:16:49.999Z,501.00
2023-03-22T06:17:49.906Z,501.00
2023-03-22T06:18:49.881Z,497.00
2023-03-22T06:19:52.607Z,494.00
2023-03-22T06:20:49.887Z,494.00
2023-03-22T06:21:49.867Z,494.00
2023-03-22T06:22:49.880Z,496.00
2023-03-22T06:23:49.831Z,499.00
2023-03-22T06:24:49.833Z,500.00
2023-03-22T06:25:49.851Z,501.00
2023-03-22T06:26:49.840Z,501.00
2023-03-22T06:27:49.810Z,502.00
2023-03-22T06:28:49.769Z,503.00
2023-03-22T06:29:49.762Z,503.00
2023-03-22T06:30:49.810Z,501.00
2023-03-22T06:31:49.753Z,503.00
2023-03-22T06:32:49.718Z,511.00
2023-03-22T06:33:49.736Z,514.00
2023-03-22T06:34:49.734Z,519.00
2023-03-22T06:35:49.737Z,523.00
2023-03-22T06:36:49.693Z,528.00
2023-03-22T06:37:49.704Z,533.00
2023-03-22T06:38:49.730Z,538.00
2023-03-22T06:39:49.701Z,546.00
2023-03-22T06:40:50.182Z,556.00
2023-03-22T06:41:49.679Z,574.00
2023-03-22T06:42:49.676Z,601.00
2023-03-22T06:43:49.687Z,636.00
2023-03-22T06:44:49.665Z,650.00
2023-03-22T06:45:56.835Z,648.00
2023-03-22T06:46:49.649Z,642.00
2023-03-22T06:47:49.675Z,702.00
2023-03-22T06:48:49.660Z,786.00
2023-03-22T06:49:49.679Z,812.00
2023-03-22T06:50:49.684Z,873.00
2023-03-22T06:51:49.616Z,853.00
2023-03-22T06:52:49.664Z,827.00
2023-03-22T06:53:49.696Z,817.00
2023-03-22T06:54:49.612Z,734.00
2023-03-22T06:55:49.607Z,729.00
2023-03-22T06:56:49.593Z,749.00
2023-03-22T06:57:49.634Z,757.00
2023-03-22T06:58:49.696Z,747.00
2023-03-22T06:59:49.582Z,658.00
2023-03-22T07:00:49.592Z,678.00
2023-03-22T07:01:49.586Z,682.00
2023-03-22T07:02:51.526Z,685.00
2023-03-22T07:03:49.597Z,682.00
2023-03-22T07:04:49.624Z,679.00
2023-03-22T07:05:49.582Z,672.00
2023-03-22T07:06:49.600Z,667.00
2023-03-22T07:07:49.598Z,663.00
2023-03-22T07:08:50.887Z,654.00
2023-03-22T07:09:49.591Z,641.00
2023-03-22T07:10:49.579Z,633.00
2023-03-22T07:11:49.614Z,626.00
2023-03-22T07:12:49.700Z,622.00
2023-03-22T07:13:49.666Z,614.00
2023-03-22T07:14:49.750Z,611.00
2023-03-22T07:15:49.835Z,608.00
2023-03-22T07:16:50.274Z,591.00
2023-03-22T07:17:49.902Z,573.00
2023-03-22T07:18:49.972Z,571.00
2023-03-22T07:19:50.027Z,578.00
2023-03-22T07:20:50.096Z,576.00
2023-03-22T07:21:50.250Z,574.00
2023-03-22T07:22:50.197Z,573.00
2023-03-22T07:23:50.273Z,567.00
2023-03-22T07:24:56.697Z,564.00
2023-03-22T07:26:50.301Z,557.00
2023-03-22T07:27:50.313Z,538.00
2023-03-22T07:28:50.319Z,535.00
2023-03-22T07:29:50.379Z,525.00
2023-03-22T07:30:50.372Z,528.00
2023-03-22T07:31:50.870Z,532.00
2023-03-22T07:32:50.321Z,531.00
2023-03-22T07:33:50.318Z,531.00
2023-03-22T07:34:50.333Z,527.00
2023-03-22T07:35:50.441Z,521.00
2023-03-22T07:36:50.711Z,516.00
2023-03-22T07:37:50.522Z,568.00
2023-03-22T07:38:50.529Z,562.00
2023-03-22T07:39:50.571Z,555.00
2023-03-22T07:40:50.588Z,540.00
2023-03-22T07:41:50.783Z,627.00
2023-03-22T07:44:50.793Z,556.00
2023-03-22T08:36:54.305Z,730.00
2023-03-22T08:47:54.480Z,738.00
2023-03-22T08:48:54.345Z,760.00
2023-03-22T08:49:54.394Z,766.00
2023-03-22T08:50:54.437Z,777.00
2023-03-22T08:51:54.508Z,802.00
2023-03-22T08:52:54.563Z,802.00
2023-03-22T08:53:54.637Z,794.00
2023-03-22T08:54:54.700Z,790.00
2023-03-22T08:55:54.786Z,785.00
2023-03-22T08:56:54.851Z,787.00
2023-03-22T08:57:54.906Z,842.00
2023-03-22T08:58:54.974Z,866.00
2023-03-22T08:59:54.973Z,864.00
2023-03-22T09:00:55.134Z,862.00
2023-03-22T09:01:55.226Z,862.00
2023-03-22T09:02:55.196Z,863.00
2023-03-22T09:03:55.212Z,868.00
2023-03-22T09:04:55.333Z,873.00
2023-03-22T09:05:55.315Z,889.00
2023-03-22T09:06:55.376Z,895.00
2023-03-22T09:07:56.607Z,818.00
2023-03-22T09:20:55.960Z,772.00
2023-03-22T10:53:57.850Z,873.00
2023-03-22T10:55:02.326Z,879.00
2023-03-22T10:56:57.870Z,884.00
2023-03-22T10:57:57.927Z,882.00
2023-03-22T10:58:57.909Z,879.00
2023-03-22T10:59:57.862Z,872.00
2023-03-22T11:00:57.902Z,868.00
2023-03-22T11:01:58.095Z,864.00
2023-03-22T11:02:57.961Z,858.00
2023-03-22T11:03:57.900Z,846.00
2023-03-22T11:04:57.831Z,841.00
2023-03-22T11:05:57.930Z,843.00
2023-03-22T11:06:57.856Z,842.00
2023-03-22T14:46:32.943Z,574.00
2023-03-22T14:47:32.948Z,575.00
2023-03-22T14:48:32.991Z,568.00
2023-03-22T14:49:33.003Z,567.00
2023-03-22T14:50:33.001Z,559.00
2023-03-22T14:51:33.037Z,556.00
2023-03-22T14:52:33.025Z,557.00
2023-03-22T14:53:33.030Z,569.00
2023-03-22T14:54:33.071Z,576.00
2023-03-22T14:55:33.083Z,581.00
2023-03-22T14:56:33.105Z,585.00
2023-03-22T14:57:36.809Z,581.00
2023-03-22T14:58:33.103Z,587.00
2023-03-22T14:59:33.104Z,565.00
2023-03-22T15:00:33.125Z,567.00
2023-03-22T15:04:33.168Z,588.00
2023-03-22T15:05:33.164Z,582.00
2023-03-22T15:06:33.198Z,625.00
2023-03-22T15:07:33.177Z,601.00
2023-03-22T15:08:33.242Z,596.00
2023-03-22T15:13:33.268Z,597.00
2023-03-22T15:14:33.274Z,603.00
2023-03-22T15:15:33.622Z,606.00
2023-03-22T15:16:33.401Z,608.00
2023-03-22T15:17:33.354Z,607.00
2023-03-22T15:18:33.322Z,604.00
2023-03-22T15:19:33.362Z,604.00
2023-03-22T15:20:33.634Z,603.00
2023-03-22T15:21:33.376Z,604.00
2023-03-22T15:22:33.405Z,607.00
2023-03-22T15:23:33.399Z,618.00
2023-03-22T15:24:33.426Z,616.00
2023-03-22T15:29:33.480Z,595.00
2023-03-22T15:30:33.440Z,592.00
2023-03-22T15:31:33.538Z,590.00
2023-03-22T15:32:33.460Z,621.00
2023-03-22T15:33:33.477Z,633.00
2023-03-22T15:34:33.476Z,634.00
2023-03-22T15:35:33.581Z,637.00
2023-03-22T15:36:33.537Z,633.00
2023-03-22T15:37:33.533Z,628.00
2023-03-22T15:38:43.153Z,626.00
2023-03-22T15:39:34.551Z,624.00
2023-03-22T15:43:33.548Z,618.00
2023-03-22T15:44:33.551Z,624.00
2023-03-22T15:45:33.604Z,627.00
2023-03-22T15:46:33.601Z,629.00
2023-03-22T15:47:33.602Z,642.00
2023-03-22T15:48:33.609Z,642.00
2023-03-22T15:49:33.634Z,645.00
2023-03-22T15:50:33.663Z,644.00
2023-03-22T16:19:34.025Z,684.00
2023-03-22T16:20:34.126Z,682.00
2023-03-22T16:23:34.166Z,699.00
2023-03-22T16:25:34.866Z,704.00
2023-03-22T16:27:34.182Z,697.00
2023-03-22T16:28:34.197Z,695.00
2023-03-22T16:29:34.213Z,702.00
2023-03-22T16:30:34.248Z,707.00
2023-03-22T16:37:34.264Z,686.00
2023-03-22T16:38:34.231Z,679.00
2023-03-22T16:45:34.417Z,656.00
2023-03-22T16:56:34.638Z,623.00
2023-03-22T16:58:34.613Z,616.00
2023-03-22T16:59:34.624Z,613.00
2023-03-22T17:06:34.770Z,592.00
2023-03-22T17:07:34.780Z,589.00
2023-03-22T17:08:34.801Z,586.00
2023-03-22T17:09:34.889Z,588.00
2023-03-22T17:10:34.863Z,583.00
2023-03-22T17:17:34.984Z,569.00
2023-03-22T17:18:35.051Z,571.00
2023-03-22T17:19:35.028Z,570.00
2023-03-22T17:20:35.077Z,570.00
2023-03-22T17:21:35.172Z,567.00
2023-03-22T17:22:35.121Z,566.00
2023-03-22T17:23:35.137Z,566.00
2023-03-22T17:24:35.195Z,564.00
2023-03-22T17:25:35.214Z,564.00
2023-03-22T17:26:35.220Z,562.00
2023-03-22T17:27:35.252Z,562.00
2023-03-22T17:28:35.270Z,563.00
2023-03-22T17:29:35.256Z,561.00
2023-03-22T17:30:35.286Z,561.00
2023-03-22T17:31:35.336Z,560.00
2023-03-22T17:32:59.277Z,558.00
2023-03-22T17:33:36.381Z,555.00
2023-03-22T17:36:35.428Z,549.00
2023-03-22T17:38:44.081Z,544.00
2023-03-22T17:40:42.644Z,546.00
2023-03-22T17:41:36.408Z,547.00
2023-03-22T17:47:39.125Z,535.00
2023-03-22T17:48:36.475Z,532.00
2023-03-22T17:51:35.540Z,533.00
2023-03-22T17:54:24.144Z,531.00
2023-03-22T17:56:10.663Z,528.00
2023-03-22T17:58:41.673Z,526.00
2023-03-22T17:59:36.567Z,526.00
2023-03-22T18:03:35.557Z,523.00
2023-03-22T18:04:35.608Z,520.00
2023-03-22T18:05:35.616Z,518.00
2023-03-22T18:06:35.654Z,515.00
2023-03-22T18:07:35.638Z,517.00
2023-03-22T18:10:35.641Z,517.00
2023-03-22T18:11:35.688Z,515.00
2023-03-22T18:13:35.664Z,515.00
2023-03-22T18:16:52.902Z,510.00
2023-03-22T18:17:36.719Z,509.00
2023-03-22T18:18:35.692Z,509.00
2023-03-22T18:19:36.901Z,510.00
2023-03-22T18:22:35.755Z,507.00
2023-03-22T18:28:35.798Z,500.00
2023-03-22T18:29:35.794Z,503.00
2023-03-22T18:30:35.867Z,503.00
2023-03-22T18:31:35.812Z,504.00
2023-03-22T18:32:59.751Z,509.00
2023-03-22T18:33:36.835Z,510.00
2023-03-22T18:35:35.822Z,510.00
2023-03-22T18:36:35.944Z,510.00
2023-03-22T18:37:35.891Z,511.00
2023-03-22T18:41:45.003Z,512.00
2023-03-22T18:43:36.702Z,510.00
2023-03-22T18:47:35.970Z,512.00
2023-03-22T18:48:36.448Z,511.00
2023-03-22T18:51:59.630Z,508.00
2023-03-22T18:52:54.393Z,510.00
2023-03-22T18:53:36.988Z,510.00
2023-03-22T18:54:38.871Z,509.00
2023-03-22T18:55:36.639Z,507.00
2023-03-22T18:56:36.017Z,507.00
2023-03-22T18:57:36.052Z,507.00
2023-03-22T18:58:36.048Z,510.00
2023-03-22T19:00:36.062Z,507.00
2023-03-22T19:01:36.084Z,510.00
2023-03-22T19:02:40.186Z,509.00
2023-03-22T19:06:36.127Z,514.00
2023-03-22T19:08:36.134Z,509.00
2023-03-22T19:09:36.171Z,510.00
2023-03-22T19:13:42.605Z,509.00
2023-03-22T19:17:36.269Z,512.00
2023-03-22T19:18:36.260Z,510.00
2023-03-22T19:19:36.289Z,511.00
2023-03-22T19:20:40.228Z,514.00
2023-03-22T19:21:37.111Z,516.00
2023-03-22T19:22:36.323Z,518.00
2023-03-22T19:23:36.315Z,519.00
2023-03-22T19:24:36.336Z,519.00
2023-03-22T19:28:37.428Z,517.00
2023-03-22T19:29:36.393Z,515.00
2023-03-22T19:30:36.415Z,515.00
2023-03-22T19:31:37.210Z,515.00
2023-03-22T19:34:36.513Z,509.00
2023-03-22T19:35:36.500Z,508.00
2023-03-22T19:36:36.596Z,509.00
2023-03-22T19:37:36.537Z,510.00
2023-03-22T19:38:36.557Z,511.00
2023-03-22T19:39:38.159Z,511.00
2023-03-22T19:41:28.873Z,512.00
2023-03-22T19:44:36.618Z,516.00
2023-03-22T19:45:36.636Z,515.00
2023-03-22T19:46:36.865Z,514.00
2023-03-22T19:47:48.230Z,513.00
2023-03-22T19:48:37.769Z,512.00
2023-03-22T19:52:36.694Z,509.00
2023-03-22T19:55:36.738Z,509.00
2023-03-22T19:56:36.762Z,508.00
2023-03-22T19:57:36.785Z,509.00
2023-03-22T19:58:36.791Z,508.00
2023-03-22T20:00:44.904Z,508.00
2023-03-22T20:01:37.801Z,508.00
2023-03-22T20:03:36.835Z,510.00
2023-03-22T20:04:36.836Z,511.00
2023-03-22T20:05:43.305Z,513.00
2023-03-22T20:06:37.859Z,514.00
2023-03-22T20:07:36.882Z,512.00
2023-03-22T20:08:36.900Z,512.00
2023-03-22T20:09:36.904Z,513.00
2023-03-22T20:10:36.928Z,507.00
2023-03-22T20:11:43.339Z,507.00
2023-03-22T20:12:37.984Z,504.00
2023-03-22T20:13:36.928Z,503.00
2023-03-22T20:14:36.964Z,501.00
2023-03-22T20:15:36.988Z,501.00
2023-03-22T20:17:36.983Z,502.00
2023-03-22T20:18:37.000Z,501.00
2023-03-22T20:19:37.010Z,501.00
2023-03-22T20:20:37.056Z,504.00
2023-03-22T20:21:37.072Z,508.00
2023-03-22T20:22:37.069Z,510.00
2023-03-22T20:24:37.082Z,512.00
2023-03-22T20:25:37.080Z,512.00
2023-03-22T20:26:37.100Z,511.00
2023-03-22T20:28:37.139Z,511.00
2023-03-22T20:29:37.229Z,510.00
2023-03-22T20:30:37.291Z,510.00
2023-03-22T20:31:37.334Z,511.00
2023-03-22T20:32:37.378Z,511.00
2023-03-22T20:33:37.438Z,507.00
2023-03-22T20:34:37.523Z,507.00
2023-03-22T20:35:37.547Z,505.00
2023-03-22T20:36:37.658Z,504.00
2023-03-22T20:37:37.651Z,503.00
2023-03-22T20:38:37.690Z,503.00
2023-03-22T20:39:37.775Z,503.00
2023-03-22T20:40:37.821Z,505.00
2023-03-22T20:41:37.851Z,505.00
2023-03-22T20:42:37.932Z,502.00
2023-03-22T20:43:37.982Z,496.00
2023-03-22T20:44:38.030Z,495.00
2023-03-22T20:45:38.082Z,495.00
2023-03-22T20:46:38.161Z,496.00
2023-03-22T20:47:38.196Z,495.00
2023-03-22T20:48:38.264Z,496.00
2023-03-22T20:49:38.358Z,495.00
2023-03-22T20:50:38.386Z,497.00
2023-03-22T20:51:38.456Z,494.00
2023-03-22T20:52:38.520Z,494.00
2023-03-22T20:53:38.560Z,494.00
2023-03-22T20:54:38.658Z,496.00
2023-03-22T20:55:38.936Z,495.00
2023-03-22T20:56:38.788Z,493.00
2023-03-22T20:57:38.828Z,494.00
2023-03-22T20:58:38.903Z,495.00
2023-03-22T20:59:38.949Z,496.00
2023-03-22T21:00:39.023Z,494.00
2023-03-22T21:01:39.135Z,494.00
2023-03-22T21:02:39.157Z,493.00
2023-03-22T21:03:39.255Z,492.00
2023-03-22T21:04:39.362Z,492.00
2023-03-22T21:05:39.381Z,493.00
2023-03-22T21:06:39.374Z,495.00
2023-03-22T21:07:39.464Z,494.00
2023-03-22T21:08:39.523Z,494.00
2023-03-22T21:09:39.600Z,495.00
2023-03-22T21:10:39.656Z,495.00
2023-03-22T21:11:39.716Z,495.00
2023-03-22T21:12:39.770Z,493.00
2023-03-22T21:13:39.830Z,495.00
2023-03-22T21:14:39.844Z,494.00
2023-03-22T21:15:40.138Z,494.00
2023-03-22T21:16:39.952Z,496.00
2023-03-22T21:17:40.016Z,499.00
2023-03-22T21:18:40.049Z,499.00
2023-03-22T21:19:40.083Z,499.00
2023-03-22T21:20:40.127Z,497.00
2023-03-22T21:21:40.191Z,495.00
2023-03-22T21:22:40.234Z,495.00
2023-03-22T21:23:40.332Z,493.00
2023-03-22T21:24:40.351Z,492.00
2023-03-22T21:25:40.593Z,490.00
2023-03-22T21:26:40.489Z,491.00
2023-03-22T21:27:40.514Z,492.00
2023-03-22T21:28:40.586Z,496.00
2023-03-22T21:29:40.638Z,495.00
2023-03-22T21:30:40.690Z,496.00
2023-03-22T21:31:40.757Z,496.00
2023-03-22T21:32:40.821Z,496.00
2023-03-22T21:33:40.975Z,494.00
2023-03-22T21:34:40.939Z,493.00
2023-03-22T21:35:41.114Z,493.00
2023-03-22T21:36:41.073Z,492.00
2023-03-22T21:37:41.098Z,492.00
2023-03-22T21:38:41.160Z,492.00
2023-03-22T21:39:41.191Z,493.00
2023-03-22T21:40:41.260Z,495.00
2023-03-22T21:41:41.328Z,494.00
2023-03-22T21:42:41.390Z,494.00
2023-03-22T21:43:41.425Z,491.00
2023-03-22T21:44:41.495Z,490.00
2023-03-22T21:45:41.741Z,491.00
2023-03-22T21:46:41.618Z,492.00
2023-03-22T21:47:41.661Z,491.00
2023-03-22T21:48:41.706Z,490.00
2023-03-22T21:49:41.774Z,491.00
2023-03-22T21:50:41.822Z,492.00
2023-03-22T21:51:41.882Z,495.00
2023-03-22T21:52:41.950Z,497.00
2023-03-22T21:56:42.132Z,496.00
2023-03-22T21:57:42.156Z,494.00
2023-03-22T21:58:42.206Z,495.00
2023-03-22T21:59:42.298Z,497.00
2023-03-22T22:00:42.345Z,499.00
2023-03-22T22:01:42.383Z,498.00
2023-03-22T22:02:42.486Z,497.00
2023-03-22T22:03:42.538Z,496.00
2023-03-22T22:04:42.570Z,496.00
2023-03-22T22:05:42.897Z,496.00
2023-03-22T22:06:42.674Z,497.00
2023-03-22T22:07:42.727Z,498.00
2023-03-22T22:08:42.818Z,499.00
2023-03-22T22:09:42.839Z,501.00
2023-03-22T22:10:42.903Z,499.00
2023-03-22T22:11:42.958Z,497.00
2023-03-22T22:12:43.002Z,496.00
2023-03-22T22:13:43.086Z,498.00
2023-03-22T22:14:43.124Z,499.00
2023-03-22T22:15:43.293Z,497.00
2023-03-22T22:16:43.227Z,494.00
2023-03-22T22:17:43.331Z,492.00
2023-03-22T22:18:43.395Z,491.00
2023-03-22T22:19:43.438Z,493.00
2023-03-22T22:20:43.501Z,493.00
2023-03-22T22:21:43.552Z,495.00
2023-03-22T22:22:43.635Z,492.00
2023-03-22T22:23:43.702Z,493.00
2023-03-22T22:24:43.778Z,494.00
2023-03-22T22:25:43.803Z,491.00
2023-03-22T22:26:43.856Z,493.00
2023-03-22T22:27:43.921Z,493.00
2023-03-22T22:28:44.004Z,494.00
2023-03-22T22:29:44.079Z,493.00
2023-03-22T22:30:44.129Z,492.00
2023-03-22T22:31:44.150Z,492.00
2023-03-22T22:32:44.232Z,494.00
2023-03-22T22:33:44.307Z,495.00
2023-03-22T22:34:44.337Z,494.00
2023-03-22T22:35:44.609Z,493.00
2023-03-22T22:36:45.310Z,490.00
2023-03-22T22:39:44.694Z,492.00
2023-03-22T22:40:44.724Z,492.00
2023-03-22T22:41:44.781Z,492.00
2023-03-22T22:42:44.853Z,491.00
2023-03-22T22:43:44.928Z,492.00
2023-03-22T22:44:44.996Z,492.00
2023-03-22T22:45:45.071Z,486.00
2023-03-22T22:46:45.145Z,484.00
2023-03-22T22:47:45.195Z,482.00
2023-03-22T22:48:45.279Z,481.00
2023-03-22T22:49:45.360Z,478.00
2023-03-22T22:50:45.410Z,475.00
2023-03-22T22:51:45.495Z,479.00
2023-03-22T22:52:45.599Z,478.00
2023-03-22T22:53:45.648Z,481.00
2023-03-22T22:54:45.717Z,478.00
2023-03-22T22:55:45.777Z,477.00
2023-03-22T22:56:45.835Z,476.00
2023-03-22T22:57:45.913Z,478.00
2023-03-22T22:58:45.981Z,476.00
2023-03-22T22:59:46.034Z,477.00
2023-03-22T23:00:46.127Z,478.00
2023-03-22T23:01:46.204Z,481.00
2023-03-22T23:02:46.277Z,480.00
2023-03-22T23:03:46.319Z,478.00
2023-03-22T23:04:46.380Z,478.00
2023-03-22T23:05:46.476Z,479.00
2023-03-22T23:06:46.540Z,477.00
2023-03-22T23:07:46.614Z,478.00
2023-03-22T23:08:46.688Z,477.00
2023-03-22T23:09:46.777Z,479.00
2023-03-22T23:10:46.832Z,478.00
2023-03-22T23:11:46.902Z,477.00
2023-03-22T23:12:47.006Z,478.00
2023-03-22T23:13:47.052Z,477.00
2023-03-22T23:14:47.112Z,476.00
2023-03-22T23:15:47.147Z,475.00
2023-03-22T23:16:47.255Z,479.00
2023-03-22T23:17:47.281Z,480.00
2023-03-22T23:18:47.339Z,482.00
2023-03-22T23:19:47.438Z,485.00
2023-03-22T23:20:47.492Z,484.00
2023-03-22T23:21:47.563Z,483.00
2023-03-22T23:22:47.628Z,483.00
2023-03-22T23:23:50.081Z,482.00
2023-03-22T23:24:47.755Z,482.00
2023-03-22T23:25:47.847Z,480.00
2023-03-22T23:26:47.913Z,477.00
2023-03-22T23:27:47.957Z,476.00
2023-03-22T23:28:48.026Z,475.00
2023-03-22T23:29:48.130Z,478.00
2023-03-22T23:30:48.159Z,478.00
2023-03-22T23:31:48.249Z,477.00
2023-03-22T23:32:48.336Z,478.00
2023-03-22T23:33:48.396Z,480.00
2023-03-22T23:34:48.455Z,482.00
2023-03-22T23:35:48.552Z,484.00
2023-03-22T23:36:48.638Z,482.00
2023-03-22T23:37:48.680Z,479.00
2023-03-22T23:38:48.771Z,479.00
2023-03-22T23:39:48.816Z,478.00
2023-03-22T23:40:48.904Z,478.00
2023-03-22T23:41:48.977Z,477.00
2023-03-22T23:42:49.053Z,478.00
2023-03-22T23:43:49.066Z,477.00
2023-03-22T23:44:49.083Z,476.00
2023-03-22T23:45:49.107Z,475.00
2023-03-22T23:57:49.349Z,477.00
2023-03-22T23:58:49.345Z,478.00
2023-03-22T23:59:49.403Z,479.00
